sensor_id;sensor_type;location;lat;lon;timestamp;P1;durP1;ratioP1;P2;durP2;ratioP2
36243;SDS011;22284;49.956;19.816;2022-12-07T00:02:19;16.27;;;8.27;;
36243;SDS011;22284;49.956;19.816;2022-12-07T00:05:20;18.13;;;8.70;;
36243;SDS011;22284;49.956;19.816;2022-12-07T00:08:22;17.97;;;8.80;;
36243;SDS011;22284;49.956;19.816;2022-12-07T00:11:23;16.70;;;8.53;;
36243;SDS011;22284;49.956;19.816;2022-12-07T00:14:24;17.47;;;8.20;;
36243;SDS011;22284;49.956;19.816;2022-12-07T00:17:25;16.47;;;8.50;;
36243;SDS011;22284;49.956;19.816;2022-12-07T00:20:26;16.60;;;9.07;;
36243;SDS011;22284;49.956;19.816;2022-12-07T00:23:29;18.10;;;9.03;;
36243;SDS011;22284;49.956;19.816;2022-12-07T00:26:37;18.80;;;8.98;;
36243;SDS011;22284;49.956;19.816;2022-12-07T00:29:40;18.60;;;9.53;;
36243;SDS011;22284;49.956;19.816;2022-12-07T00:32:41;19.27;;;10.40;;
36243;SDS011;22284;49.956;19.816;2022-12-07T00:35:42;19.60;;;10.07;;
36243;SDS011;22284;49.956;19.816;2022-12-07T00:38:43;20.60;;;10.87;;
36243;SDS011;22284;49.956;19.816;2022-12-07T00:41:44;23.03;;;11.17;;
36243;SDS011;22284;49.956;19.816;2022-12-07T00:44:45;21.23;;;11.00;;
36243;SDS011;22284;49.956;19.816;2022-12-07T00:47:46;20.80;;;11.17;;
36243;SDS011;22284;49.956;19.816;2022-12-07T00:50:47;18.90;;;10.30;;
36243;SDS011;22284;49.956;19.816;2022-12-07T00:53:49;20.33;;;10.87;;
36243;SDS011;22284;49.956;19.816;2022-12-07T00:56:51;20.63;;;11.33;;
36243;SDS011;22284;49.956;19.816;2022-12-07T00:59:52;19.33;;;10.90;;
36243;SDS011;22284;49.956;19.816;2022-12-07T01:02:55;19.92;;;11.35;;
36243;SDS011;22284;49.956;19.816;2022-12-07T01:05:56;22.70;;;11.67;;
36243;SDS011;22284;49.956;19.816;2022-12-07T01:08:58;20.43;;;11.60;;
36243;SDS011;22284;49.956;19.816;2022-12-07T01:12:00;21.20;;;11.30;;
36243;SDS011;22284;49.956;19.816;2022-12-07T01:15:01;19.87;;;11.53;;
36243;SDS011;22284;49.956;19.816;2022-12-07T01:18:02;21.73;;;11.83;;
36243;SDS011;22284;49.956;19.816;2022-12-07T01:24:14;23.43;;;13.00;;
36243;SDS011;22284;49.956;19.816;2022-12-07T01:27:15;21.53;;;12.20;;
36243;SDS011;22284;49.956;19.816;2022-12-07T01:30:16;21.60;;;12.17;;
36243;SDS011;22284;49.956;19.816;2022-12-07T01:33:17;22.73;;;12.00;;
36243;SDS011;22284;49.956;19.816;2022-12-07T01:36:23;24.03;;;12.53;;
36243;SDS011;22284;49.956;19.816;2022-12-07T01:39:25;23.47;;;12.40;;
36243;SDS011;22284;49.956;19.816;2022-12-07T01:42:27;20.63;;;11.27;;
36243;SDS011;22284;49.956;19.816;2022-12-07T01:45:40;24.13;;;12.43;;
36243;SDS011;22284;49.956;19.816;2022-12-07T01:48:42;23.18;;;11.65;;
36243;SDS011;22284;49.956;19.816;2022-12-07T01:51:44;23.17;;;12.27;;
36243;SDS011;22284;49.956;19.816;2022-12-07T01:54:47;24.90;;;13.43;;
36243;SDS011;22284;49.956;19.816;2022-12-07T01:57:52;24.40;;;13.37;;
36243;SDS011;22284;49.956;19.816;2022-12-07T02:00:54;23.73;;;13.75;;
36243;SDS011;22284;49.956;19.816;2022-12-07T02:03:55;25.03;;;12.37;;
36243;SDS011;22284;49.956;19.816;2022-12-07T02:06:58;35.80;;;19.13;;
36243;SDS011;22284;49.956;19.816;2022-12-07T02:10:11;27.40;;;14.73;;
36243;SDS011;22284;49.956;19.816;2022-12-07T02:13:24;26.20;;;13.20;;
36243;SDS011;22284;49.956;19.816;2022-12-07T02:30:47;21.53;;;11.50;;
36243;SDS011;22284;49.956;19.816;2022-12-07T02:33:52;23.85;;;11.93;;
36243;SDS011;22284;49.956;19.816;2022-12-07T02:36:57;22.27;;;11.13;;
36243;SDS011;22284;49.956;19.816;2022-12-07T02:43:28;24.13;;;12.57;;
36243;SDS011;22284;49.956;19.816;2022-12-07T02:46:37;27.10;;;12.83;;
36243;SDS011;22284;49.956;19.816;2022-12-07T02:49:42;27.43;;;14.07;;
36243;SDS011;22284;49.956;19.816;2022-12-07T02:52:44;22.53;;;11.50;;
36243;SDS011;22284;49.956;19.816;2022-12-07T02:55:45;22.50;;;11.50;;
36243;SDS011;22284;49.956;19.816;2022-12-07T02:58:54;23.73;;;12.57;;
36243;SDS011;22284;49.956;19.816;2022-12-07T03:12:27;22.30;;;11.50;;
36243;SDS011;22284;49.956;19.816;2022-12-07T03:18:51;21.63;;;12.63;;
36243;SDS011;22284;49.956;19.816;2022-12-07T03:22:02;22.50;;;11.83;;
36243;SDS011;22284;49.956;19.816;2022-12-07T03:25:10;21.03;;;11.67;;
36243;SDS011;22284;49.956;19.816;2022-12-07T03:28:18;23.47;;;12.20;;
36243;SDS011;22284;49.956;19.816;2022-12-07T03:31:24;21.90;;;11.83;;
36243;SDS011;22284;49.956;19.816;2022-12-07T03:34:31;21.53;;;12.00;;
36243;SDS011;22284;49.956;19.816;2022-12-07T03:40:44;21.93;;;12.63;;
36243;SDS011;22284;49.956;19.816;2022-12-07T03:43:47;22.27;;;12.17;;
36243;SDS011;22284;49.956;19.816;2022-12-07T03:53:36;23.50;;;12.43;;
36243;SDS011;22284;49.956;19.816;2022-12-07T03:56:47;20.77;;;11.27;;
36243;SDS011;22284;49.956;19.816;2022-12-07T03:59:49;23.43;;;12.07;;
36243;SDS011;22284;49.956;19.816;2022-12-07T04:02:52;22.77;;;11.50;;
36243;SDS011;22284;49.956;19.816;2022-12-07T04:05:54;21.03;;;11.83;;
36243;SDS011;22284;49.956;19.816;2022-12-07T04:08:55;21.93;;;11.33;;
36243;SDS011;22284;49.956;19.816;2022-12-07T04:11:56;19.83;;;10.70;;
36243;SDS011;22284;49.956;19.816;2022-12-07T04:14:57;21.80;;;10.50;;
36243;SDS011;22284;49.956;19.816;2022-12-07T04:17:58;19.47;;;10.90;;
36243;SDS011;22284;49.956;19.816;2022-12-07T04:20:59;18.20;;;9.20;;
36243;SDS011;22284;49.956;19.816;2022-12-07T04:24:00;17.40;;;8.83;;
36243;SDS011;22284;49.956;19.816;2022-12-07T04:27:01;17.07;;;8.80;;
36243;SDS011;22284;49.956;19.816;2022-12-07T04:30:02;20.00;;;9.77;;
36243;SDS011;22284;49.956;19.816;2022-12-07T04:33:04;19.83;;;10.60;;
36243;SDS011;22284;49.956;19.816;2022-12-07T04:36:05;19.77;;;10.70;;
36243;SDS011;22284;49.956;19.816;2022-12-07T04:39:07;19.60;;;10.47;;
36243;SDS011;22284;49.956;19.816;2022-12-07T04:42:11;20.67;;;10.87;;
36243;SDS011;22284;49.956;19.816;2022-12-07T04:45:13;21.57;;;10.93;;
36243;SDS011;22284;49.956;19.816;2022-12-07T04:48:14;17.83;;;10.20;;
36243;SDS011;22284;49.956;19.816;2022-12-07T04:51:16;17.80;;;9.93;;
36243;SDS011;22284;49.956;19.816;2022-12-07T04:54:27;22.03;;;11.10;;
36243;SDS011;22284;49.956;19.816;2022-12-07T04:57:28;21.77;;;11.57;;
36243;SDS011;22284;49.956;19.816;2022-12-07T05:00:29;19.47;;;10.90;;
36243;SDS011;22284;49.956;19.816;2022-12-07T05:03:29;20.53;;;10.13;;
36243;SDS011;22284;49.956;19.816;2022-12-07T05:06:30;19.23;;;9.73;;
36243;SDS011;22284;49.956;19.816;2022-12-07T05:09:32;16.50;;;8.80;;
36243;SDS011;22284;49.956;19.816;2022-12-07T05:12:33;18.00;;;9.30;;
36243;SDS011;22284;49.956;19.816;2022-12-07T05:15:34;17.93;;;9.00;;
36243;SDS011;22284;49.956;19.816;2022-12-07T05:18:34;15.80;;;8.40;;
36243;SDS011;22284;49.956;19.816;2022-12-07T05:21:36;16.90;;;8.80;;
36243;SDS011;22284;49.956;19.816;2022-12-07T05:24:38;23.03;;;11.23;;
36243;SDS011;22284;49.956;19.816;2022-12-07T05:27:39;18.90;;;9.50;;
36243;SDS011;22284;49.956;19.816;2022-12-07T05:30:39;17.20;;;8.80;;
36243;SDS011;22284;49.956;19.816;2022-12-07T05:33:41;18.03;;;9.37;;
36243;SDS011;22284;49.956;19.816;2022-12-07T05:36:42;18.70;;;9.70;;
36243;SDS011;22284;49.956;19.816;2022-12-07T05:39:42;15.97;;;8.27;;
36243;SDS011;22284;49.956;19.816;2022-12-07T05:42:44;15.77;;;8.43;;
36243;SDS011;22284;49.956;19.816;2022-12-07T05:45:45;16.30;;;8.50;;
36243;SDS011;22284;49.956;19.816;2022-12-07T05:48:46;18.10;;;8.80;;
36243;SDS011;22284;49.956;19.816;2022-12-07T05:51:47;16.37;;;8.87;;
36243;SDS011;22284;49.956;19.816;2022-12-07T05:54:48;15.97;;;8.57;;
36243;SDS011;22284;49.956;19.816;2022-12-07T05:57:49;15.73;;;8.60;;
36243;SDS011;22284;49.956;19.816;2022-12-07T06:01:09;17.10;;;9.50;;
36243;SDS011;22284;49.956;19.816;2022-12-07T06:04:10;17.00;;;9.27;;
36243;SDS011;22284;49.956;19.816;2022-12-07T06:07:11;16.57;;;8.60;;
36243;SDS011;22284;49.956;19.816;2022-12-07T06:10:15;13.77;;;6.97;;
36243;SDS011;22284;49.956;19.816;2022-12-07T06:13:16;15.53;;;6.53;;
36243;SDS011;22284;49.956;19.816;2022-12-07T06:16:17;12.77;;;6.37;;
36243;SDS011;22284;49.956;19.816;2022-12-07T06:19:19;11.80;;;6.30;;
36243;SDS011;22284;49.956;19.816;2022-12-07T06:22:20;14.57;;;6.63;;
36243;SDS011;22284;49.956;19.816;2022-12-07T06:25:21;13.77;;;7.30;;
36243;SDS011;22284;49.956;19.816;2022-12-07T06:28:22;14.07;;;7.47;;
36243;SDS011;22284;49.956;19.816;2022-12-07T06:31:23;14.93;;;7.23;;
36243;SDS011;22284;49.956;19.816;2022-12-07T06:34:24;13.73;;;7.60;;
36243;SDS011;22284;49.956;19.816;2022-12-07T06:37:26;16.23;;;8.20;;
36243;SDS011;22284;49.956;19.816;2022-12-07T06:40:27;16.23;;;8.83;;
36243;SDS011;22284;49.956;19.816;2022-12-07T06:43:28;15.20;;;8.40;;
36243;SDS011;22284;49.956;19.816;2022-12-07T06:46:29;15.37;;;7.43;;
36243;SDS011;22284;49.956;19.816;2022-12-07T06:49:31;17.13;;;8.63;;
36243;SDS011;22284;49.956;19.816;2022-12-07T06:52:32;14.87;;;7.83;;
36243;SDS011;22284;49.956;19.816;2022-12-07T06:55:33;17.47;;;8.73;;
36243;SDS011;22284;49.956;19.816;2022-12-07T06:58:34;16.53;;;8.30;;
36243;SDS011;22284;49.956;19.816;2022-12-07T07:01:35;15.20;;;8.23;;
36243;SDS011;22284;49.956;19.816;2022-12-07T07:04:36;17.23;;;8.87;;
36243;SDS011;22284;49.956;19.816;2022-12-07T07:07:37;17.10;;;8.93;;
36243;SDS011;22284;49.956;19.816;2022-12-07T07:10:38;16.07;;;8.33;;
36243;SDS011;22284;49.956;19.816;2022-12-07T07:13:40;18.90;;;9.27;;
36243;SDS011;22284;49.956;19.816;2022-12-07T07:16:41;19.30;;;9.53;;
36243;SDS011;22284;49.956;19.816;2022-12-07T07:19:42;20.30;;;9.57;;
36243;SDS011;22284;49.956;19.816;2022-12-07T07:22:43;20.40;;;10.13;;
36243;SDS011;22284;49.956;19.816;2022-12-07T07:25:44;17.43;;;9.07;;
36243;SDS011;22284;49.956;19.816;2022-12-07T07:28:46;17.47;;;8.70;;
36243;SDS011;22284;49.956;19.816;2022-12-07T07:31:47;20.30;;;10.53;;
36243;SDS011;22284;49.956;19.816;2022-12-07T07:34:48;19.30;;;9.50;;
36243;SDS011;22284;49.956;19.816;2022-12-07T07:37:49;19.50;;;9.37;;
36243;SDS011;22284;49.956;19.816;2022-12-07T07:40:50;18.77;;;9.87;;
36243;SDS011;22284;49.956;19.816;2022-12-07T07:43:51;18.60;;;9.57;;
36243;SDS011;22284;49.956;19.816;2022-12-07T07:46:52;20.17;;;10.40;;
36243;SDS011;22284;49.956;19.816;2022-12-07T07:49:53;20.23;;;10.20;;
36243;SDS011;22284;49.956;19.816;2022-12-07T07:52:55;19.90;;;10.23;;
36243;SDS011;22284;49.956;19.816;2022-12-07T07:55:58;18.07;;;9.77;;
36243;SDS011;22284;49.956;19.816;2022-12-07T07:58:59;21.10;;;10.00;;
36243;SDS011;22284;49.956;19.816;2022-12-07T08:02:00;20.53;;;10.73;;
36243;SDS011;22284;49.956;19.816;2022-12-07T08:05:01;19.73;;;10.43;;
36243;SDS011;22284;49.956;19.816;2022-12-07T08:08:03;21.00;;;10.43;;
36243;SDS011;22284;49.956;19.816;2022-12-07T08:11:05;18.93;;;10.13;;
36243;SDS011;22284;49.956;19.816;2022-12-07T08:14:07;18.40;;;10.00;;
36243;SDS011;22284;49.956;19.816;2022-12-07T08:17:10;19.83;;;10.17;;
36243;SDS011;22284;49.956;19.816;2022-12-07T08:20:11;19.00;;;10.43;;
36243;SDS011;22284;49.956;19.816;2022-12-07T08:23:12;21.47;;;11.50;;
36243;SDS011;22284;49.956;19.816;2022-12-07T08:26:14;19.67;;;10.63;;
36243;SDS011;22284;49.956;19.816;2022-12-07T08:29:17;20.70;;;10.43;;
36243;SDS011;22284;49.956;19.816;2022-12-07T08:32:18;20.33;;;9.83;;
36243;SDS011;22284;49.956;19.816;2022-12-07T08:35:19;18.00;;;9.83;;
36243;SDS011;22284;49.956;19.816;2022-12-07T08:38:20;18.23;;;9.87;;
36243;SDS011;22284;49.956;19.816;2022-12-07T08:41:21;18.60;;;10.30;;
36243;SDS011;22284;49.956;19.816;2022-12-07T08:44:21;15.33;;;8.77;;
36243;SDS011;22284;49.956;19.816;2022-12-07T08:47:23;15.80;;;8.40;;
36243;SDS011;22284;49.956;19.816;2022-12-07T08:50:25;14.45;;;7.60;;
36243;SDS011;22284;49.956;19.816;2022-12-07T08:53:27;13.57;;;7.73;;
36243;SDS011;22284;49.956;19.816;2022-12-07T08:56:30;10.78;;;6.05;;
36243;SDS011;22284;49.956;19.816;2022-12-07T08:59:31;14.57;;;7.77;;
36243;SDS011;22284;49.956;19.816;2022-12-07T09:02:35;11.87;;;6.97;;
36243;SDS011;22284;49.956;19.816;2022-12-07T09:05:36;13.77;;;6.73;;
36243;SDS011;22284;49.956;19.816;2022-12-07T09:08:38;14.27;;;7.57;;
36243;SDS011;22284;49.956;19.816;2022-12-07T09:11:44;16.50;;;8.07;;
36243;SDS011;22284;49.956;19.816;2022-12-07T09:14:45;13.63;;;7.03;;
36243;SDS011;22284;49.956;19.816;2022-12-07T09:17:46;15.10;;;7.93;;
36243;SDS011;22284;49.956;19.816;2022-12-07T09:20:47;17.07;;;9.27;;
36243;SDS011;22284;49.956;19.816;2022-12-07T09:23:48;16.23;;;8.87;;
36243;SDS011;22284;49.956;19.816;2022-12-07T09:26:49;16.53;;;8.87;;
36243;SDS011;22284;49.956;19.816;2022-12-07T09:29:50;16.53;;;8.63;;
36243;SDS011;22284;49.956;19.816;2022-12-07T09:32:55;15.03;;;8.20;;
36243;SDS011;22284;49.956;19.816;2022-12-07T09:35:57;14.00;;;7.13;;
36243;SDS011;22284;49.956;19.816;2022-12-07T09:38:58;12.67;;;7.40;;
36243;SDS011;22284;49.956;19.816;2022-12-07T09:41:59;14.13;;;8.17;;
36243;SDS011;22284;49.956;19.816;2022-12-07T09:45:05;14.27;;;8.40;;
36243;SDS011;22284;49.956;19.816;2022-12-07T09:48:14;17.23;;;8.57;;
36243;SDS011;22284;49.956;19.816;2022-12-07T09:51:22;15.77;;;8.60;;
36243;SDS011;22284;49.956;19.816;2022-12-07T09:54:24;14.83;;;7.87;;
36243;SDS011;22284;49.956;19.816;2022-12-07T09:57:29;12.87;;;7.17;;
36243;SDS011;22284;49.956;19.816;2022-12-07T10:00:34;14.83;;;7.53;;
36243;SDS011;22284;49.956;19.816;2022-12-07T10:03:37;14.60;;;7.67;;
36243;SDS011;22284;49.956;19.816;2022-12-07T10:06:40;12.83;;;7.53;;
36243;SDS011;22284;49.956;19.816;2022-12-07T10:09:42;13.70;;;7.37;;
36243;SDS011;22284;49.956;19.816;2022-12-07T10:12:53;16.77;;;8.27;;
36243;SDS011;22284;49.956;19.816;2022-12-07T10:16:05;16.10;;;8.37;;
36243;SDS011;22284;49.956;19.816;2022-12-07T10:19:28;16.23;;;8.50;;
36243;SDS011;22284;49.956;19.816;2022-12-07T10:22:33;14.40;;;7.60;;
36243;SDS011;22284;49.956;19.816;2022-12-07T10:25:35;15.73;;;7.40;;
36243;SDS011;22284;49.956;19.816;2022-12-07T10:28:38;12.93;;;6.60;;
36243;SDS011;22284;49.956;19.816;2022-12-07T10:31:39;11.83;;;6.60;;
36243;SDS011;22284;49.956;19.816;2022-12-07T10:34:41;12.00;;;7.00;;
36243;SDS011;22284;49.956;19.816;2022-12-07T10:37:43;12.77;;;6.80;;
36243;SDS011;22284;49.956;19.816;2022-12-07T10:40:45;14.53;;;7.70;;
36243;SDS011;22284;49.956;19.816;2022-12-07T10:43:48;15.50;;;7.80;;
36243;SDS011;22284;49.956;19.816;2022-12-07T10:46:53;14.47;;;7.77;;
36243;SDS011;22284;49.956;19.816;2022-12-07T10:50:28;13.67;;;7.50;;
36243;SDS011;22284;49.956;19.816;2022-12-07T10:54:21;13.18;;;7.20;;
36243;SDS011;22284;49.956;19.816;2022-12-07T10:57:55;15.80;;;8.13;;
36243;SDS011;22284;49.956;19.816;2022-12-07T11:07:55;12.97;;;7.10;;
36243;SDS011;22284;49.956;19.816;2022-12-07T11:11:23;12.83;;;6.47;;
36243;SDS011;22284;49.956;19.816;2022-12-07T11:14:37;11.70;;;6.53;;
36243;SDS011;22284;49.956;19.816;2022-12-07T11:18:11;13.58;;;6.78;;
36243;SDS011;22284;49.956;19.816;2022-12-07T11:28:32;12.00;;;5.80;;
36243;SDS011;22284;49.956;19.816;2022-12-07T11:38:53;11.20;;;5.77;;
36243;SDS011;22284;49.956;19.816;2022-12-07T11:42:06;10.03;;;5.60;;
36243;SDS011;22284;49.956;19.816;2022-12-07T11:45:16;12.97;;;5.40;;
36243;SDS011;22284;49.956;19.816;2022-12-07T11:48:22;12.37;;;6.00;;
36243;SDS011;22284;49.956;19.816;2022-12-07T11:51:36;12.70;;;5.87;;
36243;SDS011;22284;49.956;19.816;2022-12-07T11:57:44;12.13;;;5.83;;
36243;SDS011;22284;49.956;19.816;2022-12-07T12:00:53;13.03;;;6.03;;
36243;SDS011;22284;49.956;19.816;2022-12-07T12:03:53;13.87;;;6.93;;
36243;SDS011;22284;49.956;19.816;2022-12-07T12:07:06;11.43;;;5.83;;
36243;SDS011;22284;49.956;19.816;2022-12-07T12:20:45;11.03;;;4.93;;
36243;SDS011;22284;49.956;19.816;2022-12-07T12:23:59;9.20;;;4.17;;
36243;SDS011;22284;49.956;19.816;2022-12-07T12:27:06;9.50;;;4.87;;
36243;SDS011;22284;49.956;19.816;2022-12-07T12:30:24;9.57;;;4.57;;
36243;SDS011;22284;49.956;19.816;2022-12-07T12:33:29;8.33;;;4.35;;
36243;SDS011;22284;49.956;19.816;2022-12-07T12:40:07;7.37;;;3.63;;
36243;SDS011;22284;49.956;19.816;2022-12-07T12:43:39;9.35;;;4.42;;
36243;SDS011;22284;49.956;19.816;2022-12-07T12:50:19;8.30;;;4.20;;
36243;SDS011;22284;49.956;19.816;2022-12-07T12:53:30;6.87;;;4.13;;
36243;SDS011;22284;49.956;19.816;2022-12-07T12:56:36;8.90;;;4.57;;
36243;SDS011;22284;49.956;19.816;2022-12-07T13:03:00;7.47;;;4.47;;
36243;SDS011;22284;49.956;19.816;2022-12-07T13:09:29;8.33;;;3.90;;
36243;SDS011;22284;49.956;19.816;2022-12-07T13:12:34;9.67;;;4.90;;
36243;SDS011;22284;49.956;19.816;2022-12-07T13:18:59;9.00;;;4.70;;
36243;SDS011;22284;49.956;19.816;2022-12-07T13:21:59;10.47;;;5.00;;
36243;SDS011;22284;49.956;19.816;2022-12-07T13:28:36;9.63;;;4.60;;
36243;SDS011;22284;49.956;19.816;2022-12-07T13:34:52;11.97;;;5.10;;
36243;SDS011;22284;49.956;19.816;2022-12-07T13:37:53;12.03;;;5.00;;
36243;SDS011;22284;49.956;19.816;2022-12-07T13:44:19;12.00;;;5.95;;
36243;SDS011;22284;49.956;19.816;2022-12-07T13:47:28;14.60;;;6.40;;
36243;SDS011;22284;49.956;19.816;2022-12-07T13:50:39;15.57;;;6.67;;
36243;SDS011;22284;49.956;19.816;2022-12-07T13:53:45;14.27;;;6.43;;
36243;SDS011;22284;49.956;19.816;2022-12-07T13:56:52;10.73;;;5.30;;
36243;SDS011;22284;49.956;19.816;2022-12-07T13:59:53;12.20;;;5.87;;
36243;SDS011;22284;49.956;19.816;2022-12-07T14:02:56;14.50;;;6.47;;
36243;SDS011;22284;49.956;19.816;2022-12-07T14:09:20;12.53;;;6.37;;
36243;SDS011;22284;49.956;19.816;2022-12-07T14:12:25;11.70;;;5.50;;
36243;SDS011;22284;49.956;19.816;2022-12-07T14:15:29;17.53;;;7.27;;
36243;SDS011;22284;49.956;19.816;2022-12-07T14:18:37;15.43;;;6.63;;
36243;SDS011;22284;49.956;19.816;2022-12-07T14:21:42;11.80;;;5.90;;
36243;SDS011;22284;49.956;19.816;2022-12-07T14:24:43;11.47;;;5.87;;
36243;SDS011;22284;49.956;19.816;2022-12-07T14:27:55;14.23;;;6.50;;
36243;SDS011;22284;49.956;19.816;2022-12-07T14:31:00;16.03;;;6.93;;
36243;SDS011;22284;49.956;19.816;2022-12-07T14:34:02;15.55;;;6.55;;
36243;SDS011;22284;49.956;19.816;2022-12-07T14:37:03;15.93;;;6.87;;
36243;SDS011;22284;49.956;19.816;2022-12-07T14:40:11;16.97;;;7.23;;
36243;SDS011;22284;49.956;19.816;2022-12-07T14:43:17;18.53;;;8.03;;
36243;SDS011;22284;49.956;19.816;2022-12-07T14:46:19;18.13;;;8.50;;
36243;SDS011;22284;49.956;19.816;2022-12-07T14:49:20;16.83;;;8.40;;
36243;SDS011;22284;49.956;19.816;2022-12-07T14:52:23;22.43;;;10.07;;
36243;SDS011;22284;49.956;19.816;2022-12-07T14:55:29;18.00;;;8.43;;
36243;SDS011;22284;49.956;19.816;2022-12-07T14:58:31;17.53;;;7.50;;
36243;SDS011;22284;49.956;19.816;2022-12-07T15:01:33;18.90;;;8.47;;
36243;SDS011;22284;49.956;19.816;2022-12-07T15:04:34;16.47;;;7.97;;
36243;SDS011;22284;49.956;19.816;2022-12-07T15:07:36;18.97;;;9.03;;
36243;SDS011;22284;49.956;19.816;2022-12-07T15:10:37;26.90;;;11.67;;
36243;SDS011;22284;49.956;19.816;2022-12-07T15:13:40;25.02;;;10.60;;
36243;SDS011;22284;49.956;19.816;2022-12-07T15:17:00;28.57;;;12.73;;
36243;SDS011;22284;49.956;19.816;2022-12-07T15:20:01;25.17;;;11.93;;
36243;SDS011;22284;49.956;19.816;2022-12-07T15:23:04;25.90;;;12.35;;
36243;SDS011;22284;49.956;19.816;2022-12-07T15:26:05;26.43;;;12.17;;
36243;SDS011;22284;49.956;19.816;2022-12-07T15:29:07;25.73;;;12.30;;
36243;SDS011;22284;49.956;19.816;2022-12-07T15:32:08;27.10;;;12.50;;
36243;SDS011;22284;49.956;19.816;2022-12-07T15:35:09;25.43;;;11.93;;
36243;SDS011;22284;49.956;19.816;2022-12-07T15:38:10;23.57;;;11.60;;
36243;SDS011;22284;49.956;19.816;2022-12-07T15:41:12;22.50;;;10.50;;
36243;SDS011;22284;49.956;19.816;2022-12-07T15:44:13;22.67;;;10.73;;
36243;SDS011;22284;49.956;19.816;2022-12-07T15:47:34;23.93;;;11.37;;
36243;SDS011;22284;49.956;19.816;2022-12-07T15:50:39;22.60;;;11.30;;
36243;SDS011;22284;49.956;19.816;2022-12-07T15:53:40;23.07;;;10.43;;
36243;SDS011;22284;49.956;19.816;2022-12-07T15:56:41;21.40;;;10.03;;
36243;SDS011;22284;49.956;19.816;2022-12-07T15:59:42;22.40;;;10.80;;
36243;SDS011;22284;49.956;19.816;2022-12-07T16:02:43;20.27;;;10.20;;
36243;SDS011;22284;49.956;19.816;2022-12-07T16:05:51;21.70;;;10.50;;
36243;SDS011;22284;49.956;19.816;2022-12-07T16:08:53;23.60;;;11.17;;
36243;SDS011;22284;49.956;19.816;2022-12-07T16:11:54;21.47;;;10.37;;
36243;SDS011;22284;49.956;19.816;2022-12-07T16:14:55;22.53;;;11.20;;
36243;SDS011;22284;49.956;19.816;2022-12-07T16:17:56;24.73;;;11.57;;
36243;SDS011;22284;49.956;19.816;2022-12-07T16:20:57;23.50;;;11.70;;
36243;SDS011;22284;49.956;19.816;2022-12-07T16:23:58;23.73;;;11.07;;
36243;SDS011;22284;49.956;19.816;2022-12-07T16:26:59;22.13;;;10.57;;
36243;SDS011;22284;49.956;19.816;2022-12-07T16:30:01;21.03;;;9.73;;
36243;SDS011;22284;49.956;19.816;2022-12-07T16:33:02;19.67;;;10.20;;
36243;SDS011;22284;49.956;19.816;2022-12-07T16:36:03;23.10;;;11.33;;
36243;SDS011;22284;49.956;19.816;2022-12-07T16:39:08;20.73;;;10.33;;
36243;SDS011;22284;49.956;19.816;2022-12-07T16:42:10;23.62;;;10.68;;
36243;SDS011;22284;49.956;19.816;2022-12-07T16:45:11;23.47;;;11.43;;
36243;SDS011;22284;49.956;19.816;2022-12-07T16:48:12;24.17;;;11.63;;
36243;SDS011;22284;49.956;19.816;2022-12-07T16:51:14;17.32;;;8.58;;
36243;SDS011;22284;49.956;19.816;2022-12-07T16:54:15;25.83;;;10.83;;
36243;SDS011;22284;49.956;19.816;2022-12-07T16:57:17;18.30;;;8.50;;
36243;SDS011;22284;49.956;19.816;2022-12-07T17:00:18;18.60;;;8.40;;
36243;SDS011;22284;49.956;19.816;2022-12-07T17:03:20;20.02;;;9.13;;
36243;SDS011;22284;49.956;19.816;2022-12-07T17:06:23;15.77;;;7.97;;
36243;SDS011;22284;49.956;19.816;2022-12-07T17:09:26;16.87;;;8.47;;
36243;SDS011;22284;49.956;19.816;2022-12-07T17:12:27;17.40;;;7.13;;
36243;SDS011;22284;49.956;19.816;2022-12-07T17:15:29;17.87;;;8.20;;
36243;SDS011;22284;49.956;19.816;2022-12-07T17:18:30;16.07;;;7.23;;
36243;SDS011;22284;49.956;19.816;2022-12-07T17:21:35;16.50;;;7.00;;
36243;SDS011;22284;49.956;19.816;2022-12-07T17:24:37;13.90;;;6.70;;
36243;SDS011;22284;49.956;19.816;2022-12-07T17:27:38;15.33;;;6.70;;
36243;SDS011;22284;49.956;19.816;2022-12-07T17:30:39;18.20;;;7.67;;
36243;SDS011;22284;49.956;19.816;2022-12-07T17:33:40;16.27;;;6.97;;
36243;SDS011;22284;49.956;19.816;2022-12-07T17:36:41;17.27;;;6.50;;
36243;SDS011;22284;49.956;19.816;2022-12-07T17:42:45;15.73;;;6.97;;
36243;SDS011;22284;49.956;19.816;2022-12-07T17:45:48;17.42;;;6.40;;
36243;SDS011;22284;49.956;19.816;2022-12-07T17:48:50;16.63;;;7.60;;
36243;SDS011;22284;49.956;19.816;2022-12-07T17:51:56;22.83;;;9.40;;
36243;SDS011;22284;49.956;19.816;2022-12-07T17:55:16;18.83;;;8.87;;
36243;SDS011;22284;49.956;19.816;2022-12-07T17:58:18;15.63;;;6.83;;
36243;SDS011;22284;49.956;19.816;2022-12-07T18:01:19;13.83;;;6.63;;
36243;SDS011;22284;49.956;19.816;2022-12-07T18:04:20;12.00;;;5.57;;
36243;SDS011;22284;49.956;19.816;2022-12-07T18:07:21;13.30;;;6.20;;
36243;SDS011;22284;49.956;19.816;2022-12-07T18:10:22;13.43;;;6.03;;
36243;SDS011;22284;49.956;19.816;2022-12-07T18:13:23;12.50;;;6.57;;
36243;SDS011;22284;49.956;19.816;2022-12-07T18:16:37;11.93;;;6.10;;
36243;SDS011;22284;49.956;19.816;2022-12-07T18:19:38;11.30;;;5.83;;
36243;SDS011;22284;49.956;19.816;2022-12-07T18:22:39;13.67;;;6.53;;
36243;SDS011;22284;49.956;19.816;2022-12-07T18:25:40;18.57;;;7.27;;
36243;SDS011;22284;49.956;19.816;2022-12-07T18:28:50;15.37;;;7.40;;
36243;SDS011;22284;49.956;19.816;2022-12-07T18:31:52;18.97;;;8.27;;
36243;SDS011;22284;49.956;19.816;2022-12-07T18:34:52;19.00;;;9.33;;
36243;SDS011;22284;49.956;19.816;2022-12-07T18:37:53;16.87;;;7.60;;
36243;SDS011;22284;49.956;19.816;2022-12-07T18:40:55;17.17;;;7.90;;
36243;SDS011;22284;49.956;19.816;2022-12-07T18:43:56;18.10;;;8.50;;
36243;SDS011;22284;49.956;19.816;2022-12-07T18:46:57;23.53;;;10.53;;
36243;SDS011;22284;49.956;19.816;2022-12-07T18:49:58;28.70;;;13.67;;
36243;SDS011;22284;49.956;19.816;2022-12-07T18:52:59;32.53;;;15.30;;
36243;SDS011;22284;49.956;19.816;2022-12-07T18:59:18;41.60;;;17.90;;
36243;SDS011;22284;49.956;19.816;2022-12-07T19:02:38;43.90;;;19.70;;
36243;SDS011;22284;49.956;19.816;2022-12-07T19:05:39;40.70;;;18.43;;
36243;SDS011;22284;49.956;19.816;2022-12-07T19:08:40;44.73;;;19.43;;
36243;SDS011;22284;49.956;19.816;2022-12-07T19:11:41;39.40;;;18.60;;
36243;SDS011;22284;49.956;19.816;2022-12-07T19:14:52;36.00;;;17.23;;
36243;SDS011;22284;49.956;19.816;2022-12-07T19:17:54;35.03;;;16.43;;
36243;SDS011;22284;49.956;19.816;2022-12-07T19:20:55;29.30;;;15.00;;
36243;SDS011;22284;49.956;19.816;2022-12-07T19:23:57;31.80;;;14.97;;
36243;SDS011;22284;49.956;19.816;2022-12-07T19:26:58;31.40;;;15.17;;
36243;SDS011;22284;49.956;19.816;2022-12-07T19:29:59;27.63;;;14.00;;
36243;SDS011;22284;49.956;19.816;2022-12-07T19:33:00;29.77;;;14.63;;
36243;SDS011;22284;49.956;19.816;2022-12-07T19:36:01;28.00;;;13.60;;
36243;SDS011;22284;49.956;19.816;2022-12-07T19:39:03;28.90;;;13.37;;
36243;SDS011;22284;49.956;19.816;2022-12-07T19:42:06;25.97;;;12.50;;
36243;SDS011;22284;49.956;19.816;2022-12-07T19:45:08;24.10;;;11.83;;